createdAt,value
2022-07-25T00:00:29.027Z,99.90
2022-07-25T00:02:57.018Z,99.90
2022-07-25T00:05:24.188Z,99.90
2022-07-25T00:07:50.906Z,99.90
2022-07-25T00:10:17.509Z,99.90
2022-07-25T00:12:44.177Z,99.90
2022-07-25T00:15:11.517Z,99.90
2022-07-25T00:17:39.680Z,99.90
2022-07-25T00:20:07.238Z,99.90
2022-07-25T00:22:33.883Z,99.90
2022-07-25T00:25:00.703Z,99.90
2022-07-25T00:27:27.349Z,99.90
2022-07-25T00:29:53.952Z,99.90
2022-07-25T00:32:20.666Z,99.90
2022-07-25T00:34:47.269Z,99.90
2022-07-25T00:37:13.846Z,99.90
2022-07-25T00:39:40.498Z,99.90
2022-07-25T00:42:07.202Z,99.90
2022-07-25T00:44:36.671Z,99.90
2022-07-25T00:47:03.370Z,99.90
2022-07-25T00:49:30.021Z,99.90
2022-07-25T00:51:56.861Z,99.90
2022-07-25T00:54:23.717Z,99.90
2022-07-25T00:56:50.770Z,99.90
2022-07-25T00:59:17.959Z,99.90
2022-07-25T01:01:48.075Z,99.90
2022-07-25T01:04:15.908Z,99.90
2022-07-25T01:06:42.613Z,99.90
2022-07-25T01:09:09.373Z,99.90
2022-07-25T01:11:36.036Z,99.90
2022-07-25T01:14:02.960Z,99.90
2022-07-25T01:16:29.965Z,99.90
2022-07-25T01:18:56.637Z,99.90
2022-07-25T01:21:23.904Z,99.90
2022-07-25T01:23:50.725Z,99.90
2022-07-25T01:26:17.443Z,99.90
2022-07-25T01:28:44.095Z,99.90
2022-07-25T01:31:10.782Z,99.90
2022-07-25T01:33:37.487Z,99.90
2022-07-25T01:36:04.295Z,99.90
2022-07-25T01:38:30.891Z,99.90
2022-07-25T01:40:57.531Z,99.90
2022-07-25T01:43:24.199Z,99.90
2022-07-25T01:45:50.919Z,99.90
2022-07-25T01:48:17.550Z,99.90
2022-07-25T01:50:46.732Z,99.90
2022-07-25T01:53:15.712Z,99.90
2022-07-25T01:55:44.479Z,99.90
2022-07-25T01:58:11.404Z,99.90
2022-07-25T02:00:38.126Z,99.90
2022-07-25T02:03:23.527Z,99.90
2022-07-25T02:05:50.245Z,99.90
2022-07-25T02:08:16.893Z,99.90
2022-07-25T02:10:43.940Z,99.90
2022-07-25T02:13:10.627Z,99.90
2022-07-25T02:15:37.245Z,99.90
2022-07-25T02:18:04.238Z,99.90
2022-07-25T02:20:30.876Z,99.90
2022-07-25T02:22:57.562Z,99.90
2022-07-25T02:25:24.245Z,99.90
2022-07-25T02:27:50.860Z,99.90
2022-07-25T02:30:17.512Z,99.90
2022-07-25T02:32:44.182Z,99.90
2022-07-25T02:35:13.390Z,99.90
2022-07-25T02:37:40.453Z,99.90
2022-07-25T02:40:07.649Z,99.90
2022-07-25T02:42:34.532Z,99.90
2022-07-25T02:45:01.478Z,99.90
2022-07-25T02:47:28.097Z,99.90
2022-07-25T02:49:54.800Z,99.90
2022-07-25T02:52:21.462Z,99.90
2022-07-25T02:54:48.122Z,99.90
2022-07-25T02:57:14.724Z,99.90
2022-07-25T02:59:41.355Z,99.90
2022-07-25T03:02:08.009Z,99.90
2022-07-25T03:04:34.956Z,99.90
2022-07-25T03:07:01.630Z,99.90
2022-07-25T03:09:28.336Z,99.90
2022-07-25T03:11:54.956Z,99.90
2022-07-25T03:14:21.655Z,99.90
2022-07-25T03:16:48.308Z,99.90
2022-07-25T03:19:15.037Z,99.90
2022-07-25T03:21:41.728Z,99.90
2022-07-25T03:24:08.851Z,99.90
2022-07-25T03:26:35.653Z,99.90
2022-07-25T03:29:02.647Z,99.90
2022-07-25T03:31:29.313Z,99.90
2022-07-25T03:33:55.979Z,99.90
2022-07-25T03:36:22.659Z,99.90
2022-07-25T03:38:49.289Z,99.90
2022-07-25T03:41:15.926Z,99.90
2022-07-25T03:43:42.603Z,99.90
2022-07-25T03:46:09.307Z,99.90
2022-07-25T03:48:36.018Z,99.90
2022-07-25T03:51:06.891Z,99.90
2022-07-25T03:53:54.161Z,99.90
2022-07-25T03:56:20.846Z,99.90
2022-07-25T03:58:47.557Z,99.90
2022-07-25T04:01:14.244Z,99.90
2022-07-25T04:03:40.873Z,99.90
2022-07-25T04:06:07.645Z,99.90
2022-07-25T04:08:34.435Z,99.90
2022-07-25T04:11:01.140Z,99.90
2022-07-25T04:13:27.804Z,99.90
2022-07-25T04:15:54.474Z,99.90
2022-07-25T04:18:21.857Z,99.90
2022-07-25T04:20:54.096Z,99.90
2022-07-25T04:23:20.677Z,99.90
2022-07-25T04:25:47.344Z,99.90
2022-07-25T04:28:13.974Z,99.90
2022-07-25T04:30:40.687Z,99.90
2022-07-25T04:33:07.262Z,99.90
2022-07-25T04:35:33.927Z,99.90
2022-07-25T04:38:00.551Z,99.90
2022-07-25T04:40:27.178Z,99.90
2022-07-25T04:42:53.853Z,99.90
2022-07-25T04:45:20.570Z,99.90
2022-07-25T04:47:47.367Z,99.90
2022-07-25T04:50:14.113Z,99.90
2022-07-25T04:52:40.951Z,99.90
2022-07-25T04:55:07.818Z,99.90
2022-07-25T04:57:34.673Z,99.90
2022-07-25T05:00:01.396Z,99.90
2022-07-25T05:02:28.081Z,99.90
2022-07-25T05:04:55.193Z,99.90
2022-07-25T05:07:22.317Z,99.90
2022-07-25T05:09:49.071Z,99.90
2022-07-25T05:12:15.716Z,99.90
2022-07-25T05:14:42.373Z,99.90
2022-07-25T05:17:08.961Z,99.90
2022-07-25T05:19:35.661Z,99.90
2022-07-25T05:22:02.472Z,99.90
2022-07-25T05:24:29.130Z,99.90
2022-07-25T05:26:55.758Z,99.90
2022-07-25T05:29:22.388Z,99.90
2022-07-25T05:31:49.143Z,99.90
2022-07-25T05:34:15.825Z,99.90
2022-07-25T05:36:47.067Z,99.90
2022-07-25T05:39:14.054Z,99.90
2022-07-25T05:41:40.699Z,99.90
2022-07-25T05:44:07.887Z,99.90
2022-07-25T05:46:35.570Z,99.90
2022-07-25T05:49:02.301Z,99.90
2022-07-25T05:51:29.119Z,99.90
2022-07-25T05:53:55.740Z,99.90
2022-07-25T05:56:22.367Z,99.90
2022-07-25T05:58:49.075Z,99.90
2022-07-25T06:01:15.989Z,99.90
2022-07-25T06:03:42.625Z,99.90
2022-07-25T06:06:09.367Z,99.90
2022-07-25T06:08:36.616Z,99.90
2022-07-25T06:11:04.967Z,99.90
2022-07-25T06:13:32.188Z,99.90
2022-07-25T06:16:01.723Z,99.90
2022-07-25T06:18:28.457Z,99.90
2022-07-25T06:20:55.228Z,99.90
2022-07-25T06:23:21.919Z,99.90
2022-07-25T06:25:50.137Z,99.90
2022-07-25T06:28:18.042Z,99.90
2022-07-25T06:30:45.291Z,99.90
2022-07-25T06:33:12.597Z,99.90
2022-07-25T06:35:39.235Z,99.90
2022-07-25T06:38:05.857Z,99.90
2022-07-25T06:40:32.637Z,99.90
2022-07-25T06:42:59.337Z,99.90
2022-07-25T06:45:26.010Z,99.90
2022-07-25T06:47:52.824Z,99.90
2022-07-25T06:50:21.187Z,99.90
2022-07-25T06:52:48.129Z,99.90
2022-07-25T06:55:15.360Z,99.90
2022-07-25T06:57:42.623Z,99.90
2022-07-25T07:00:10.544Z,99.90
2022-07-25T07:02:52.276Z,99.90
2022-07-25T07:05:19.136Z,99.90
2022-07-25T07:07:47.792Z,99.90
2022-07-25T07:10:15.608Z,99.90
2022-07-25T07:12:42.321Z,99.90
2022-07-25T07:15:09.744Z,99.90
2022-07-25T07:17:36.708Z,99.90
2022-07-25T07:20:04.293Z,99.90
2022-07-25T07:22:31.019Z,99.90
2022-07-25T07:24:57.680Z,99.90
2022-07-25T07:27:24.325Z,99.90
2022-07-25T07:29:50.966Z,99.90
2022-07-25T07:32:17.642Z,99.90
2022-07-25T07:34:44.378Z,99.90
2022-07-25T07:37:11.096Z,99.90
2022-07-25T07:39:37.704Z,99.90
2022-07-25T07:42:04.890Z,99.90
2022-07-25T07:44:31.585Z,99.90
2022-07-25T07:47:02.545Z,99.90
2022-07-25T07:49:29.860Z,99.90
2022-07-25T07:51:56.760Z,99.90
2022-07-25T07:54:41.959Z,99.90
2022-07-25T07:57:08.641Z,99.90
2022-07-25T07:59:35.532Z,99.90
2022-07-25T08:02:02.197Z,99.90
2022-07-25T08:04:28.933Z,99.90
2022-07-25T08:06:55.544Z,99.90
2022-07-25T08:09:22.164Z,99.90
2022-07-25T08:11:48.902Z,99.90
2022-07-25T08:14:15.542Z,99.90
2022-07-25T08:16:42.264Z,99.90
2022-07-25T08:19:08.986Z,99.90
2022-07-25T08:21:35.686Z,99.90
2022-07-25T08:24:02.304Z,99.90
2022-07-25T08:26:30.460Z,99.90
2022-07-25T08:29:17.548Z,99.90
2022-07-25T08:31:44.120Z,99.90
2022-07-25T08:34:10.791Z,99.90
2022-07-25T08:36:37.769Z,99.90
2022-07-25T08:39:04.398Z,99.90
2022-07-25T08:41:32.977Z,99.90
2022-07-25T08:44:00.438Z,99.90
2022-07-25T08:46:28.682Z,99.90
2022-07-25T08:48:56.299Z,99.90
2022-07-25T08:51:23.369Z,99.90
2022-07-25T08:53:50.181Z,99.90
2022-07-25T08:56:20.954Z,99.90
2022-07-25T08:58:48.199Z,99.90
2022-07-25T09:01:15.058Z,99.90
2022-07-25T09:03:42.510Z,99.90
2022-07-25T09:06:19.082Z,99.90
2022-07-25T09:08:59.635Z,99.90
2022-07-25T09:11:30.250Z,99.90
2022-07-25T09:14:01.508Z,99.90
2022-07-25T09:16:32.075Z,99.90
2022-07-25T09:19:08.601Z,99.90
2022-07-25T09:21:35.322Z,99.90
2022-07-25T09:24:09.269Z,99.90
2022-07-25T09:26:49.707Z,99.90
2022-07-25T09:29:26.921Z,99.90
2022-07-25T09:31:54.420Z,99.90
2022-07-25T09:34:31.913Z,97.90
2022-07-25T09:36:58.646Z,97.60
2022-07-25T09:39:35.717Z,96.50
2022-07-25T09:42:02.509Z,94.90
2022-07-25T09:44:32.536Z,94.70
2022-07-25T09:47:09.464Z,95.20
2022-07-25T09:49:43.277Z,96.00
2022-07-25T09:52:10.395Z,93.80
2022-07-25T09:54:38.064Z,93.40
2022-07-25T09:57:05.109Z,93.50
2022-07-25T09:59:32.876Z,92.90
2022-07-25T10:02:08.573Z,93.00
2022-07-25T10:04:43.493Z,91.00
2022-07-25T10:07:12.184Z,92.80
2022-07-25T10:09:46.304Z,91.60
2022-07-25T10:12:14.148Z,90.40
2022-07-25T10:14:40.863Z,90.50
2022-07-25T10:17:07.836Z,88.60
2022-07-25T10:19:47.400Z,90.80
2022-07-25T10:22:16.795Z,89.00
2022-07-25T10:24:44.976Z,87.90
2022-07-25T10:27:21.475Z,89.70
2022-07-25T10:29:54.486Z,89.20
2022-07-25T10:32:25.413Z,88.30
2022-07-25T10:34:52.933Z,87.80
2022-07-25T10:37:26.070Z,87.70
2022-07-25T10:39:52.821Z,87.60
2022-07-25T10:42:22.857Z,88.80
2022-07-25T10:44:50.660Z,86.00
2022-07-25T10:47:17.977Z,85.20
2022-07-25T10:50:14.504Z,81.60
2022-07-25T10:52:40.335Z,84.00
2022-07-25T10:55:07.268Z,83.30
2022-07-25T10:57:34.466Z,81.00
2022-07-25T11:00:05.064Z,85.70
2022-07-25T11:02:32.913Z,83.60
2022-07-25T11:05:00.620Z,81.60
2022-07-25T11:07:28.842Z,82.20
2022-07-25T11:09:56.771Z,82.60
2022-07-25T11:12:23.399Z,81.90
2022-07-25T11:14:50.092Z,80.50
2022-07-25T11:17:19.774Z,79.70
2022-07-25T11:19:54.162Z,78.40
2022-07-25T11:22:21.138Z,77.20
2022-07-25T11:24:48.280Z,78.50
2022-07-25T11:27:24.354Z,76.30
2022-07-25T11:29:51.385Z,77.50
2022-07-25T11:32:18.288Z,77.20
2022-07-25T11:34:47.716Z,76.10
2022-07-25T11:37:15.011Z,77.30
2022-07-25T11:39:43.400Z,76.30
2022-07-25T11:42:13.154Z,75.40
2022-07-25T11:44:45.629Z,74.10
2022-07-25T11:47:26.740Z,71.90
2022-07-25T11:49:54.337Z,70.00
2022-07-25T11:52:23.637Z,71.60
2022-07-25T11:54:53.727Z,71.00
2022-07-25T11:57:21.447Z,70.10
2022-07-25T11:59:48.074Z,71.80
2022-07-25T12:02:41.017Z,70.90
2022-07-25T12:05:08.803Z,70.60
2022-07-25T12:07:36.888Z,70.00
2022-07-25T12:10:04.140Z,68.40
2022-07-25T12:12:41.820Z,68.80
2022-07-25T12:15:09.954Z,70.40
2022-07-25T12:17:36.598Z,70.50
2022-07-25T12:20:06.739Z,70.90
2022-07-25T12:22:37.282Z,70.40
2022-07-25T12:25:04.043Z,70.70
2022-07-25T12:27:31.569Z,70.80
2022-07-25T12:29:58.373Z,72.80
2022-07-25T12:32:25.308Z,71.30
2022-07-25T12:34:52.056Z,72.10
2022-07-25T12:37:18.958Z,72.50
2022-07-25T12:39:45.732Z,69.90
2022-07-25T12:42:12.341Z,71.20
2022-07-25T12:44:39.009Z,70.60
2022-07-25T12:47:05.660Z,71.50
2022-07-25T12:49:32.416Z,71.60
2022-07-25T12:51:59.128Z,73.10
2022-07-25T12:54:25.786Z,73.90
2022-07-25T12:56:52.631Z,74.70
2022-07-25T12:59:19.464Z,75.40
2022-07-25T13:01:46.262Z,74.40
2022-07-25T13:04:13.037Z,74.90
2022-07-25T13:06:39.895Z,75.30
2022-07-25T13:09:07.511Z,74.00
2022-07-25T13:11:34.503Z,74.50
2022-07-25T13:14:01.298Z,74.90
2022-07-25T13:16:28.150Z,76.30
2022-07-25T13:18:54.913Z,75.70
2022-07-25T13:21:21.677Z,74.20
2022-07-25T13:23:48.346Z,72.00
2022-07-25T13:26:15.278Z,76.20
2022-07-25T13:28:42.046Z,71.80
2022-07-25T13:31:08.825Z,71.50
2022-07-25T13:33:35.479Z,71.60
2022-07-25T13:36:02.134Z,72.40
2022-07-25T13:38:28.740Z,73.50
2022-07-25T13:40:58.810Z,73.30
2022-07-25T13:43:25.759Z,73.20
2022-07-25T13:45:52.465Z,72.80
2022-07-25T13:48:29.677Z,73.80
2022-07-25T13:50:57.737Z,75.90
2022-07-25T13:53:28.074Z,76.50
2022-07-25T13:55:56.904Z,76.60
2022-07-25T13:58:23.649Z,77.60
2022-07-25T14:00:50.738Z,77.90
2022-07-25T14:03:17.364Z,78.10
2022-07-25T14:05:44.009Z,78.50
2022-07-25T14:08:10.688Z,80.20
2022-07-25T14:10:37.392Z,80.20
2022-07-25T14:13:04.084Z,79.40
2022-07-25T14:15:30.861Z,80.10
2022-07-25T14:17:57.786Z,79.70
2022-07-25T14:20:24.589Z,78.70
2022-07-25T14:22:51.180Z,79.80
2022-07-25T14:25:17.855Z,79.70
2022-07-25T14:27:45.182Z,80.10
2022-07-25T14:30:12.563Z,81.00
2022-07-25T14:32:39.191Z,82.60
2022-07-25T14:35:06.160Z,79.60
2022-07-25T14:37:33.486Z,79.20
2022-07-25T14:40:01.779Z,78.80
2022-07-25T14:42:28.698Z,80.20
2022-07-25T14:44:55.378Z,79.60
2022-07-25T14:47:22.310Z,80.60
2022-07-25T14:49:49.499Z,79.10
2022-07-25T14:52:16.510Z,79.50
2022-07-25T14:54:43.185Z,79.70
2022-07-25T14:57:10.086Z,79.70
2022-07-25T14:59:36.921Z,80.20
2022-07-25T15:02:03.822Z,78.20
2022-07-25T15:04:30.509Z,78.70
2022-07-25T15:06:57.221Z,79.10
2022-07-25T15:09:23.842Z,81.90
2022-07-25T15:11:50.492Z,80.90
2022-07-25T15:14:17.078Z,82.10
2022-07-25T15:16:43.879Z,82.80
2022-07-25T15:19:26.291Z,82.40
2022-07-25T15:21:53.187Z,82.10
2022-07-25T15:24:19.769Z,81.40
2022-07-25T15:26:46.438Z,82.60
2022-07-25T15:29:18.589Z,81.50
2022-07-25T15:31:45.268Z,83.10
2022-07-25T15:34:12.644Z,83.30
2022-07-25T15:36:39.275Z,84.50
2022-07-25T15:39:06.739Z,84.80
2022-07-25T15:41:33.718Z,87.00
2022-07-25T15:44:00.438Z,88.20
2022-07-25T15:46:28.897Z,88.70
2022-07-25T15:48:57.811Z,90.00
2022-07-25T15:51:24.843Z,90.10
2022-07-25T15:53:51.553Z,90.30
2022-07-25T15:56:18.396Z,90.80
2022-07-25T15:58:47.153Z,89.60
2022-07-25T16:01:13.895Z,89.30
2022-07-25T16:03:40.798Z,88.60
2022-07-25T16:06:07.668Z,90.30
2022-07-25T16:08:35.089Z,90.60
2022-07-25T16:11:01.790Z,89.70
2022-07-25T16:13:29.750Z,90.70
2022-07-25T16:15:56.530Z,91.20
2022-07-25T16:18:23.225Z,92.70
2022-07-25T16:20:49.919Z,94.10
2022-07-25T16:23:16.649Z,96.20
2022-07-25T16:25:43.339Z,99.50
2022-07-25T16:28:09.987Z,99.90
2022-07-25T16:30:36.640Z,99.90
2022-07-25T16:33:03.283Z,99.90
2022-07-25T16:35:31.083Z,99.90
2022-07-25T16:37:57.714Z,99.80
2022-07-25T16:40:27.395Z,99.60
2022-07-25T16:42:59.176Z,99.40
2022-07-25T16:45:26.170Z,99.10
2022-07-25T16:47:52.789Z,99.40
2022-07-25T16:50:19.942Z,99.60
2022-07-25T16:52:46.652Z,97.80
2022-07-25T16:55:13.252Z,97.00
2022-07-25T16:57:40.060Z,96.60
2022-07-25T17:00:08.175Z,96.10
2022-07-25T17:02:35.006Z,96.60
2022-07-25T17:05:01.756Z,95.90
2022-07-25T17:07:28.543Z,94.90
2022-07-25T17:09:55.221Z,95.00
2022-07-25T17:12:22.169Z,94.30
2022-07-25T17:14:48.851Z,94.20
2022-07-25T17:17:15.850Z,94.30
2022-07-25T17:19:42.537Z,94.10
2022-07-25T17:22:09.510Z,93.80
2022-07-25T17:24:37.566Z,94.30
2022-07-25T17:27:04.599Z,94.50
2022-07-25T17:29:31.303Z,93.90
2022-07-25T17:31:58.007Z,93.80
2022-07-25T17:34:26.620Z,94.40
2022-07-25T17:36:53.599Z,94.60
2022-07-25T17:39:20.291Z,94.50
2022-07-25T17:41:46.941Z,94.40
2022-07-25T17:44:13.927Z,93.80
2022-07-25T17:46:41.073Z,94.30
2022-07-25T17:49:07.813Z,94.20
2022-07-25T17:51:34.633Z,94.10
2022-07-25T17:54:01.236Z,94.40
2022-07-25T17:56:27.883Z,94.10
2022-07-25T17:58:54.584Z,94.60
2022-07-25T18:01:21.248Z,94.80
2022-07-25T18:03:48.478Z,94.60
2022-07-25T18:06:15.197Z,94.80
2022-07-25T18:08:41.855Z,94.90
2022-07-25T18:11:08.534Z,95.10
2022-07-25T18:13:35.359Z,95.10
2022-07-25T18:16:02.145Z,95.20
2022-07-25T18:18:29.422Z,95.10
2022-07-25T18:20:56.100Z,95.20
2022-07-25T18:23:24.178Z,95.50
2022-07-25T18:25:52.105Z,95.70
2022-07-25T18:28:18.950Z,95.70
2022-07-25T18:30:45.650Z,95.80
2022-07-25T18:33:12.338Z,96.30
2022-07-25T18:35:38.983Z,96.40
2022-07-25T18:38:06.185Z,96.40
2022-07-25T18:40:32.834Z,96.50
2022-07-25T18:42:59.446Z,96.50
2022-07-25T18:45:28.288Z,96.50
2022-07-25T18:47:55.244Z,96.40
2022-07-25T18:50:21.915Z,96.60
2022-07-25T18:52:48.603Z,96.80
2022-07-25T18:55:15.222Z,96.80
2022-07-25T18:57:41.882Z,97.10
2022-07-25T19:00:08.953Z,97.00
2022-07-25T19:02:35.649Z,97.20
2022-07-25T19:05:02.389Z,97.60
2022-07-25T19:07:31.182Z,97.90
2022-07-25T19:09:57.937Z,98.10
2022-07-25T19:12:26.539Z,97.40
2022-07-25T19:14:56.468Z,97.90
2022-07-25T19:17:24.032Z,98.10
2022-07-25T19:19:51.867Z,97.90
2022-07-25T19:22:18.669Z,98.60
2022-07-25T19:24:45.323Z,98.30
2022-07-25T19:27:12.462Z,98.60
2022-07-25T19:29:41.245Z,98.80
2022-07-25T19:32:07.905Z,98.80
2022-07-25T19:34:34.588Z,98.90
2022-07-25T19:37:01.332Z,99.00
2022-07-25T19:39:27.955Z,99.10
2022-07-25T19:41:54.626Z,98.90
2022-07-25T19:44:21.353Z,99.10
2022-07-25T19:46:49.513Z,99.10
2022-07-25T19:49:18.008Z,99.10
2022-07-25T19:51:44.765Z,98.80
2022-07-25T19:54:12.129Z,99.10
2022-07-25T19:56:38.896Z,99.20
2022-07-25T19:59:05.610Z,99.30
2022-07-25T20:01:36.477Z,99.70
2022-07-25T20:04:05.413Z,99.60
2022-07-25T20:06:32.514Z,98.90
2022-07-25T20:08:59.296Z,98.80
2022-07-25T20:11:26.004Z,98.90
2022-07-25T20:13:53.873Z,99.00
2022-07-25T20:16:20.573Z,99.10
2022-07-25T20:18:47.251Z,99.30
2022-07-25T20:21:13.964Z,98.90
2022-07-25T20:23:40.616Z,99.20
2022-07-25T20:26:07.798Z,99.30
2022-07-25T20:28:34.513Z,99.20
2022-07-25T20:31:01.868Z,99.90
2022-07-25T20:33:28.687Z,99.90
2022-07-25T20:35:55.601Z,99.70
2022-07-25T20:38:22.858Z,99.80
2022-07-25T20:40:50.889Z,99.90
2022-07-25T20:43:18.135Z,99.80
2022-07-25T20:45:44.906Z,99.90
2022-07-25T20:48:11.628Z,99.80
2022-07-25T20:50:38.567Z,99.70
2022-07-25T20:53:06.057Z,99.90
2022-07-25T20:55:33.035Z,99.80
2022-07-25T20:57:59.853Z,99.90
2022-07-25T21:00:27.753Z,99.90
2022-07-25T21:02:54.849Z,99.90
2022-07-25T21:05:21.875Z,99.90
2022-07-25T21:07:48.633Z,99.90
2022-07-25T21:10:15.374Z,99.90
2022-07-25T21:12:42.372Z,99.90
2022-07-25T21:15:09.239Z,99.90
2022-07-25T21:17:35.826Z,99.90
2022-07-25T21:20:02.562Z,99.90
2022-07-25T21:22:29.259Z,99.90
2022-07-25T21:24:56.296Z,99.90
2022-07-25T21:27:23.201Z,99.90
2022-07-25T21:29:49.826Z,99.90
2022-07-25T21:32:17.371Z,99.90
2022-07-25T21:34:45.701Z,99.90
2022-07-25T21:37:12.557Z,99.90
2022-07-25T21:39:39.187Z,99.90
2022-07-25T21:42:09.736Z,99.90
2022-07-25T21:44:39.874Z,99.90
2022-07-25T21:47:06.714Z,99.90
2022-07-25T21:49:52.067Z,99.90
2022-07-25T21:52:19.417Z,99.90
2022-07-25T21:54:57.022Z,99.90
2022-07-25T21:57:23.666Z,99.90
2022-07-25T21:59:50.390Z,99.90
2022-07-25T22:02:18.170Z,99.90
2022-07-25T22:04:44.858Z,99.90
2022-07-25T22:07:11.529Z,99.90
2022-07-25T22:09:38.301Z,99.90
2022-07-25T22:12:05.132Z,99.90
2022-07-25T22:14:31.721Z,99.90
2022-07-25T22:16:58.425Z,99.90
2022-07-25T22:19:25.115Z,99.90
2022-07-25T22:21:51.855Z,99.90
2022-07-25T22:24:18.499Z,99.90
2022-07-25T22:26:45.559Z,99.90
2022-07-25T22:29:12.701Z,99.90
2022-07-25T22:31:39.496Z,99.90
2022-07-25T22:34:06.319Z,99.90
2022-07-25T22:36:33.042Z,99.90
2022-07-25T22:38:59.682Z,99.90
2022-07-25T22:41:26.347Z,99.90
2022-07-25T22:43:58.320Z,99.90
2022-07-25T22:46:26.839Z,99.90
2022-07-25T22:48:53.600Z,99.90
2022-07-25T22:51:20.461Z,99.90
2022-07-25T22:53:47.076Z,99.90
2022-07-25T22:56:13.768Z,99.90
2022-07-25T22:58:40.433Z,99.90
2022-07-25T23:01:07.055Z,99.90
2022-07-25T23:03:34.686Z,99.90
2022-07-25T23:06:01.588Z,99.90
2022-07-25T23:08:28.448Z,99.90
2022-07-25T23:10:55.137Z,99.90
2022-07-25T23:13:21.754Z,99.90
2022-07-25T23:15:51.158Z,99.90
2022-07-25T23:18:18.556Z,99.90
2022-07-25T23:20:45.330Z,99.90
2022-07-25T23:23:13.012Z,99.90
2022-07-25T23:25:39.733Z,99.90
2022-07-25T23:28:06.383Z,99.90
2022-07-25T23:30:38.035Z,99.90
2022-07-25T23:33:07.120Z,99.90
2022-07-25T23:35:34.152Z,99.90
2022-07-25T23:38:00.787Z,99.90
2022-07-25T23:40:27.527Z,99.90
2022-07-25T23:42:54.493Z,99.90
2022-07-25T23:45:21.845Z,99.90
2022-07-25T23:47:51.538Z,99.90
2022-07-25T23:50:19.781Z,99.90
2022-07-25T23:52:46.425Z,99.90
2022-07-25T23:55:13.064Z,99.90
2022-07-25T23:57:39.753Z,99.90
